createdAt,value
2018-09-21T00:01:18.720Z,4.87
2018-09-21T00:03:53.000Z,2.20
2018-09-21T00:06:22.148Z,5.53
2018-09-21T00:08:51.009Z,4.13
2018-09-21T00:11:20.204Z,5.47
2018-09-21T00:13:49.621Z,4.30
2018-09-21T00:16:18.921Z,4.07
2018-09-21T00:18:47.647Z,5.93
2018-09-21T00:21:16.620Z,8.10
2018-09-21T00:23:45.288Z,5.93
2018-09-21T00:26:13.927Z,4.23
2018-09-21T00:28:42.562Z,4.23
2018-09-21T00:31:11.206Z,2.63
2018-09-21T00:33:39.873Z,3.00
2018-09-21T00:36:08.915Z,3.07
2018-09-21T00:38:37.560Z,4.47
2018-09-21T00:41:06.245Z,3.47
2018-09-21T00:43:34.935Z,7.63
2018-09-21T00:46:03.623Z,3.23
2018-09-21T00:48:32.257Z,4.10
2018-09-21T00:51:00.941Z,4.67
2018-09-21T00:53:29.592Z,4.57
2018-09-21T00:55:58.247Z,5.80
2018-09-21T00:58:26.886Z,4.93
2018-09-21T01:00:55.515Z,4.97
2018-09-21T01:03:24.148Z,4.93
2018-09-21T01:05:52.744Z,5.73
2018-09-21T01:08:21.404Z,6.53
2018-09-21T01:10:50.999Z,5.20
2018-09-21T01:13:19.635Z,4.67
2018-09-21T01:15:48.477Z,2.80
2018-09-21T01:18:17.726Z,5.97
2018-09-21T01:20:46.385Z,6.67
2018-09-21T01:23:15.025Z,6.80
2018-09-21T01:25:43.702Z,4.60
2018-09-21T01:28:12.319Z,3.43
2018-09-21T01:30:40.953Z,4.33
2018-09-21T01:33:09.600Z,2.77
2018-09-21T01:35:38.374Z,3.20
2018-09-21T01:38:07.101Z,3.87
2018-09-21T01:40:35.800Z,5.40
2018-09-21T01:43:04.540Z,3.83
2018-09-21T01:45:33.200Z,5.10
2018-09-21T01:48:01.908Z,3.23
2018-09-21T01:50:30.557Z,5.80
2018-09-21T01:52:59.188Z,3.90
2018-09-21T01:55:27.827Z,6.10
2018-09-21T01:57:56.446Z,7.23
2018-09-21T02:00:25.069Z,7.67
2018-09-21T02:02:53.695Z,6.77
2018-09-21T02:05:22.378Z,7.17
2018-09-21T02:07:51.012Z,5.07
2018-09-21T02:10:19.730Z,3.50
2018-09-21T02:12:48.423Z,6.47
2018-09-21T02:15:17.066Z,4.53
2018-09-21T02:17:45.727Z,4.73
2018-09-21T02:20:14.374Z,3.73
2018-09-21T02:22:42.995Z,6.40
2018-09-21T02:25:11.636Z,5.27
2018-09-21T02:27:40.239Z,4.00
2018-09-21T02:30:08.937Z,6.10
2018-09-21T02:32:37.609Z,7.73
2018-09-21T02:35:06.468Z,7.37
2018-09-21T02:37:35.071Z,7.80
2018-09-21T02:40:03.787Z,8.53
2018-09-21T02:42:32.460Z,7.33
2018-09-21T02:45:01.093Z,6.37
2018-09-21T02:47:29.703Z,17.60
2018-09-21T02:49:58.335Z,7.33
2018-09-21T02:52:26.979Z,7.57
2018-09-21T02:54:55.601Z,5.33
2018-09-21T02:57:24.265Z,10.57
2018-09-21T02:59:52.908Z,8.03
2018-09-21T03:02:21.617Z,7.73
2018-09-21T03:04:53.980Z,6.00
2018-09-21T03:07:23.208Z,6.23
2018-09-21T03:09:51.883Z,5.97
2018-09-21T03:12:20.611Z,6.63
2018-09-21T03:14:49.380Z,5.83
2018-09-21T03:17:18.039Z,11.00
2018-09-21T03:19:46.687Z,7.87
2018-09-21T03:22:15.329Z,8.03
2018-09-21T03:24:43.968Z,7.50
2018-09-21T03:27:12.634Z,6.60
2018-09-21T03:29:41.295Z,8.60
2018-09-21T03:32:09.959Z,8.30
2018-09-21T03:34:38.613Z,7.30
2018-09-21T03:37:07.279Z,7.40
2018-09-21T03:39:36.030Z,6.23
2018-09-21T03:42:04.728Z,6.07
2018-09-21T03:44:33.468Z,11.10
2018-09-21T03:47:02.160Z,11.63
2018-09-21T03:49:30.796Z,5.13
2018-09-21T03:51:59.452Z,7.67
2018-09-21T03:54:28.089Z,5.20
2018-09-21T03:56:56.738Z,8.97
2018-09-21T03:59:25.417Z,8.10
2018-09-21T04:01:54.063Z,5.50
2018-09-21T04:04:22.750Z,9.90
2018-09-21T04:06:51.538Z,9.40
2018-09-21T04:09:20.184Z,7.07
2018-09-21T04:11:48.856Z,11.03
2018-09-21T04:14:17.547Z,6.93
2018-09-21T04:16:46.183Z,6.43
2018-09-21T04:19:14.923Z,11.43
2018-09-21T04:21:43.576Z,6.57
2018-09-21T04:24:12.943Z,7.83
2018-09-21T04:26:41.621Z,6.87
2018-09-21T04:31:44.107Z,7.40
2018-09-21T04:34:12.747Z,12.17
2018-09-21T04:36:41.407Z,15.83
2018-09-21T04:39:11.680Z,10.33
2018-09-21T04:41:40.362Z,8.30
2018-09-21T04:44:09.530Z,6.60
2018-09-21T04:46:38.701Z,7.17
2018-09-21T04:49:07.624Z,8.07
2018-09-21T04:51:36.244Z,9.00
2018-09-21T04:54:04.958Z,7.30
2018-09-21T04:56:33.716Z,11.33
2018-09-21T04:59:02.374Z,13.43
2018-09-21T05:01:31.077Z,10.30
2018-09-21T05:03:59.701Z,12.83
2018-09-21T05:06:28.402Z,11.83
2018-09-21T05:08:57.060Z,14.10
2018-09-21T05:11:25.727Z,12.03
2018-09-21T05:13:54.477Z,10.53
2018-09-21T05:16:24.084Z,11.23
2018-09-21T05:18:52.835Z,10.77
2018-09-21T05:21:21.466Z,10.17
2018-09-21T05:23:50.095Z,12.13
2018-09-21T05:26:18.767Z,14.40
2018-09-21T05:28:47.563Z,10.03
2018-09-21T05:31:16.207Z,10.70
2018-09-21T05:33:44.839Z,10.03
2018-09-21T05:36:13.500Z,15.13
2018-09-21T05:38:42.158Z,7.10
2018-09-21T05:41:10.798Z,12.67
2018-09-21T05:43:39.443Z,13.07
2018-09-21T05:46:08.283Z,13.87
2018-09-21T05:48:36.910Z,13.23
2018-09-21T05:51:05.563Z,7.03
2018-09-21T05:53:34.230Z,10.67
2018-09-21T05:56:02.964Z,15.43
2018-09-21T05:58:31.651Z,10.70
2018-09-21T06:01:00.276Z,11.17
2018-09-21T06:03:28.967Z,8.90
2018-09-21T06:05:57.638Z,11.00
2018-09-21T06:08:26.350Z,14.67
2018-09-21T06:10:54.985Z,9.03
2018-09-21T06:13:23.700Z,8.17
2018-09-21T06:15:52.360Z,12.40
2018-09-21T06:18:21.131Z,11.07
2018-09-21T06:20:49.859Z,7.47
2018-09-21T06:23:18.521Z,7.63
2018-09-21T06:25:47.226Z,11.10
2018-09-21T06:28:15.931Z,11.00
2018-09-21T06:30:44.577Z,10.10
2018-09-21T06:33:13.240Z,8.63
2018-09-21T06:35:41.937Z,12.33
2018-09-21T06:38:10.644Z,10.80
2018-09-21T06:40:39.374Z,10.40
2018-09-21T06:43:08.104Z,14.47
2018-09-21T06:45:36.785Z,11.50
2018-09-21T06:48:06.660Z,12.30
2018-09-21T06:50:35.376Z,15.73
2018-09-21T06:53:04.074Z,16.67
2018-09-21T06:55:33.232Z,14.30
2018-09-21T06:58:02.125Z,18.70
2018-09-21T07:00:30.773Z,17.80
2018-09-21T07:02:59.414Z,16.40
2018-09-21T07:05:28.153Z,12.20
2018-09-21T07:07:56.850Z,26.77
2018-09-21T07:10:25.573Z,19.33
2018-09-21T07:12:54.243Z,18.53
2018-09-21T07:15:22.944Z,19.83
2018-09-21T07:17:51.571Z,18.30
2018-09-21T07:20:20.258Z,19.20
2018-09-21T07:22:48.950Z,13.27
2018-09-21T07:25:17.786Z,20.97
2018-09-21T07:27:46.484Z,24.00
2018-09-21T07:30:19.077Z,12.73
2018-09-21T07:32:47.877Z,18.47
2018-09-21T07:35:16.599Z,23.43
2018-09-21T07:37:45.263Z,16.17
2018-09-21T07:40:14.045Z,24.83
2018-09-21T07:42:42.734Z,21.00
2018-09-21T07:45:11.402Z,30.50
2018-09-21T07:47:40.161Z,15.37
2018-09-21T07:50:08.968Z,20.57
2018-09-21T07:52:37.692Z,13.33
2018-09-21T07:55:06.406Z,17.23
2018-09-21T07:57:35.104Z,16.90
2018-09-21T08:00:05.086Z,27.73
2018-09-21T08:02:33.795Z,19.27
2018-09-21T08:05:02.480Z,15.73
2018-09-21T08:07:31.196Z,16.50
2018-09-21T08:09:59.852Z,22.27
2018-09-21T08:12:28.568Z,15.33
2018-09-21T08:14:57.224Z,11.33
2018-09-21T08:17:25.920Z,14.30
2018-09-21T08:19:54.592Z,15.20
2018-09-21T08:22:23.256Z,12.30
2018-09-21T08:24:52.043Z,14.10
2018-09-21T08:27:21.027Z,13.57
2018-09-21T08:29:49.944Z,15.47
2018-09-21T08:32:18.630Z,13.33
2018-09-21T08:34:47.404Z,15.67
2018-09-21T08:37:16.144Z,18.30
2018-09-21T08:39:44.829Z,10.63
2018-09-21T08:42:13.595Z,16.27
2018-09-21T08:44:42.348Z,12.07
2018-09-21T08:47:11.105Z,19.40
2018-09-21T08:49:39.861Z,15.03
2018-09-21T08:52:08.696Z,16.60
2018-09-21T08:54:37.423Z,10.37
2018-09-21T08:57:06.147Z,13.13
2018-09-21T08:59:34.938Z,10.23
2018-09-21T09:02:03.642Z,10.60
2018-09-21T09:04:32.323Z,11.57
2018-09-21T09:07:00.978Z,5.90
2018-09-21T09:09:29.654Z,14.43
2018-09-21T09:11:58.395Z,9.53
2018-09-21T09:14:27.125Z,9.20
2018-09-21T09:16:55.779Z,7.00
2018-09-21T09:19:24.470Z,11.03
2018-09-21T09:21:53.176Z,11.33
2018-09-21T09:24:21.889Z,8.30
2018-09-21T09:26:50.534Z,4.73
2018-09-21T09:29:19.141Z,5.97
2018-09-21T09:31:47.810Z,8.13
2018-09-21T09:34:16.508Z,8.13
2018-09-21T09:36:45.243Z,10.03
2018-09-21T09:39:14.504Z,11.80
2018-09-21T09:41:43.137Z,10.37
2018-09-21T09:44:12.116Z,8.13
2018-09-21T09:46:41.048Z,10.83
2018-09-21T09:49:09.880Z,7.03
2018-09-21T09:51:38.648Z,12.53
2018-09-21T09:54:07.516Z,9.07
2018-09-21T09:56:36.361Z,9.80
2018-09-21T09:59:05.076Z,8.63
2018-09-21T10:01:33.825Z,8.53
2018-09-21T10:04:02.685Z,9.40
2018-09-21T10:06:31.759Z,14.00
2018-09-21T10:09:00.418Z,7.77
2018-09-21T10:11:29.672Z,5.43
2018-09-21T10:13:58.411Z,6.60
2018-09-21T10:16:27.168Z,9.33
2018-09-21T10:18:56.000Z,7.27
2018-09-21T10:21:24.809Z,9.37
2018-09-21T10:23:53.544Z,6.77
2018-09-21T10:26:22.248Z,6.70
2018-09-21T10:28:51.186Z,11.40
2018-09-21T10:31:20.145Z,7.53
2018-09-21T10:33:49.044Z,5.07
2018-09-21T10:36:17.736Z,6.37
2018-09-21T10:38:46.502Z,8.77
2018-09-21T10:41:15.307Z,7.70
2018-09-21T10:43:44.045Z,7.35
2018-09-21T10:46:12.788Z,11.43
2018-09-21T10:48:41.533Z,5.55
2018-09-21T10:51:10.251Z,8.15
2018-09-21T10:53:39.204Z,8.10
2018-09-21T10:56:08.019Z,5.67
2018-09-21T10:58:36.871Z,5.17
2018-09-21T11:01:05.668Z,8.58
2018-09-21T11:03:34.472Z,6.28
2018-09-21T11:06:03.187Z,5.90
2018-09-21T11:08:31.961Z,11.83
2018-09-21T11:11:00.632Z,6.70
2018-09-21T11:13:29.345Z,4.15
2018-09-21T11:15:58.048Z,5.53
2018-09-21T11:18:26.730Z,6.58
2018-09-21T11:20:55.709Z,9.03
2018-09-21T11:23:24.452Z,6.15
2018-09-21T11:25:53.229Z,7.40
2018-09-21T11:28:21.981Z,5.80
2018-09-21T11:30:50.666Z,7.78
2018-09-21T11:33:19.427Z,4.62
2018-09-21T11:35:48.197Z,6.10
2018-09-21T11:38:16.979Z,5.03
2018-09-21T11:40:45.651Z,4.78
2018-09-21T11:43:14.344Z,3.77
2018-09-21T11:45:43.213Z,7.25
2018-09-21T11:48:11.985Z,5.33
2018-09-21T11:50:40.752Z,4.67
2018-09-21T11:53:09.487Z,7.50
2018-09-21T11:55:38.311Z,10.45
2018-09-21T11:58:07.832Z,4.10
2018-09-21T12:00:36.744Z,4.80
2018-09-21T12:03:05.469Z,4.65
2018-09-21T12:05:34.665Z,4.17
2018-09-21T12:08:03.560Z,5.08
2018-09-21T12:10:32.405Z,5.83
2018-09-21T12:13:01.149Z,4.17
2018-09-21T12:15:29.870Z,3.05
2018-09-21T12:17:58.633Z,4.67
2018-09-21T12:20:27.724Z,4.83
2018-09-21T12:22:56.402Z,4.28
2018-09-21T12:25:25.164Z,4.62
2018-09-21T12:27:53.845Z,5.60
2018-09-21T12:30:22.591Z,3.33
2018-09-21T12:32:51.364Z,3.05
2018-09-21T12:35:20.123Z,3.05
2018-09-21T12:37:48.852Z,3.22
2018-09-21T12:40:17.644Z,4.00
2018-09-21T12:42:46.307Z,3.17
2018-09-21T12:45:15.105Z,5.87
2018-09-21T12:47:43.775Z,2.70
2018-09-21T12:50:12.534Z,2.70
2018-09-21T12:52:41.310Z,3.42
2018-09-21T12:55:10.197Z,6.45
2018-09-21T12:57:38.975Z,5.60
2018-09-21T13:00:10.909Z,3.42
2018-09-21T13:02:40.039Z,5.75
2018-09-21T13:05:08.771Z,8.73
2018-09-21T13:07:37.496Z,2.65
2018-09-21T13:10:06.364Z,6.37
2018-09-21T13:12:35.132Z,6.67
2018-09-21T13:15:03.977Z,5.58
2018-09-21T13:17:32.632Z,5.97
2018-09-21T13:20:01.357Z,3.25
2018-09-21T13:22:30.307Z,4.20
2018-09-21T13:24:59.099Z,5.15
2018-09-21T13:27:27.831Z,3.15
2018-09-21T13:29:56.654Z,3.70
2018-09-21T13:32:25.460Z,3.65
2018-09-21T13:34:54.183Z,4.20
2018-09-21T13:37:22.858Z,5.55
2018-09-21T13:39:51.594Z,5.62
2018-09-21T13:42:20.375Z,10.55
2018-09-21T13:44:49.135Z,6.87
2018-09-21T13:47:17.828Z,3.05
2018-09-21T13:49:46.612Z,5.90
2018-09-21T13:52:15.342Z,6.03
2018-09-21T13:54:44.140Z,3.10
2018-09-21T13:57:12.820Z,3.35
2018-09-21T13:59:41.557Z,3.10
2018-09-21T14:02:10.264Z,3.12
2018-09-21T14:04:38.944Z,7.70
2018-09-21T14:07:07.594Z,4.28
2018-09-21T14:09:36.316Z,5.67
2018-09-21T14:12:04.976Z,4.35
2018-09-21T14:14:33.745Z,4.40
2018-09-21T14:17:02.524Z,5.03
2018-09-21T14:19:31.213Z,4.45
2018-09-21T14:22:00.000Z,4.67
2018-09-21T14:24:28.726Z,4.90
2018-09-21T14:26:57.487Z,5.08
2018-09-21T14:29:26.338Z,3.42
2018-09-21T14:31:55.094Z,4.55
2018-09-21T14:34:23.878Z,4.40
2018-09-21T14:36:52.669Z,2.37
2018-09-21T14:39:21.376Z,4.15
2018-09-21T14:41:50.055Z,2.33
2018-09-21T14:44:18.834Z,4.78
2018-09-21T14:46:47.509Z,4.10
2018-09-21T14:49:16.239Z,2.42
2018-09-21T14:51:45.633Z,3.05
2018-09-21T14:54:14.529Z,2.42
2018-09-21T14:56:43.209Z,2.47
2018-09-21T14:59:11.964Z,2.33
2018-09-21T15:01:40.775Z,2.52
2018-09-21T15:04:09.632Z,4.25
2018-09-21T15:06:38.467Z,3.80
2018-09-21T15:09:09.259Z,2.87
2018-09-21T15:11:38.541Z,6.30
2018-09-21T15:14:07.414Z,5.80
2018-09-21T15:16:36.409Z,5.05
2018-09-21T15:19:05.249Z,5.55
2018-09-21T15:21:34.332Z,7.65
2018-09-21T15:24:03.359Z,7.25
2018-09-21T15:26:32.130Z,6.62
2018-09-21T15:29:00.909Z,3.02
2018-09-21T15:31:29.613Z,7.00
2018-09-21T15:33:58.602Z,4.97
2018-09-21T15:36:27.384Z,3.47
2018-09-21T15:38:56.109Z,3.45
2018-09-21T15:41:24.838Z,7.15
2018-09-21T15:43:53.597Z,2.53
2018-09-21T15:46:22.308Z,4.40
2018-09-21T15:48:51.164Z,8.08
2018-09-21T15:51:19.895Z,2.50
2018-09-21T15:53:48.851Z,5.27
2018-09-21T15:56:17.745Z,4.57
2018-09-21T15:58:46.657Z,3.77
2018-09-21T16:01:15.436Z,5.77
2018-09-21T16:03:44.189Z,5.33
2018-09-21T16:06:13.075Z,4.73
2018-09-21T16:08:42.655Z,6.30
2018-09-21T16:11:11.495Z,5.40
2018-09-21T16:13:40.365Z,4.87
2018-09-21T16:16:09.213Z,4.23
2018-09-21T16:18:37.942Z,5.10
2018-09-21T16:21:06.711Z,6.90
2018-09-21T16:23:35.519Z,7.00
2018-09-21T16:26:04.221Z,4.83
2018-09-21T16:28:32.931Z,5.10
2018-09-21T16:31:01.746Z,4.30
2018-09-21T16:33:30.489Z,4.93
2018-09-21T16:35:59.367Z,4.97
2018-09-21T16:38:33.655Z,5.60
2018-09-21T16:41:02.690Z,8.00
2018-09-21T16:43:31.491Z,6.33
2018-09-21T16:46:00.223Z,5.27
2018-09-21T16:48:28.949Z,6.87
2018-09-21T16:50:57.786Z,3.00
2018-09-21T16:53:28.214Z,4.53
2018-09-21T16:55:57.919Z,4.13
2018-09-21T16:58:26.676Z,4.73
2018-09-21T17:00:55.434Z,3.20
2018-09-21T17:03:24.140Z,5.63
2018-09-21T17:05:52.886Z,4.67
2018-09-21T17:08:21.585Z,5.10
2018-09-21T17:10:50.377Z,5.03
2018-09-21T17:13:19.205Z,4.33
2018-09-21T17:15:48.118Z,5.30
2018-09-21T17:18:16.928Z,4.50
2018-09-21T17:20:45.626Z,7.50
2018-09-21T17:23:14.346Z,5.30
2018-09-21T17:25:43.070Z,4.83
2018-09-21T17:28:12.724Z,4.07
2018-09-21T17:30:41.482Z,11.03
2018-09-21T17:33:10.459Z,4.57
2018-09-21T17:35:39.275Z,4.93
2018-09-21T17:38:08.018Z,5.33
2018-09-21T17:40:36.758Z,8.13
2018-09-21T17:43:05.598Z,4.20
2018-09-21T17:45:34.384Z,5.33
2018-09-21T17:48:03.162Z,5.80
2018-09-21T17:50:32.203Z,3.73
2018-09-21T17:53:00.988Z,4.57
2018-09-21T17:55:29.761Z,7.73
2018-09-21T17:57:58.510Z,5.47
2018-09-21T18:00:27.334Z,8.20
2018-09-21T18:02:56.058Z,3.90
2018-09-21T18:05:24.998Z,6.37
2018-09-21T18:07:53.732Z,3.93
2018-09-21T18:10:22.448Z,6.80
2018-09-21T18:12:51.189Z,4.43
